createdAt,value
2022-12-31T00:02:17.436Z,15.53
2022-12-31T00:07:24.414Z,16.23
2022-12-31T00:12:29.215Z,13.53
2022-12-31T00:17:34.397Z,14.40
2022-12-31T00:22:40.531Z,14.40
2022-12-31T00:27:44.411Z,16.37
2022-12-31T00:32:48.415Z,14.37
2022-12-31T00:37:53.917Z,16.30
2022-12-31T00:42:58.647Z,14.83
2022-12-31T00:48:05.370Z,15.57
2022-12-31T00:53:10.531Z,14.37
2022-12-31T00:58:14.523Z,14.23
2022-12-31T01:03:19.375Z,16.20
2022-12-31T01:08:25.730Z,15.10
2022-12-31T01:13:34.551Z,16.23
2022-12-31T01:18:39.586Z,17.07
2022-12-31T01:23:44.050Z,15.37
2022-12-31T01:28:49.286Z,16.03
2022-12-31T01:33:53.407Z,16.70
2022-12-31T01:39:00.825Z,16.97
2022-12-31T01:44:26.172Z,16.23
2022-12-31T01:49:58.670Z,15.83
2022-12-31T01:55:19.220Z,16.17
2022-12-31T02:00:26.547Z,16.27
2022-12-31T02:05:38.960Z,16.37
2022-12-31T02:10:43.163Z,14.07
2022-12-31T02:16:10.524Z,16.17
2022-12-31T02:21:36.443Z,14.67
2022-12-31T02:27:23.410Z,16.07
2022-12-31T02:33:11.667Z,16.50
2022-12-31T02:38:45.238Z,17.13
2022-12-31T02:43:52.519Z,16.57
2022-12-31T02:49:17.479Z,17.80
2022-12-31T02:54:32.994Z,16.53
2022-12-31T03:00:19.988Z,17.80
2022-12-31T03:05:27.867Z,16.13
2022-12-31T03:10:32.705Z,17.43
2022-12-31T03:15:36.502Z,19.77
2022-12-31T03:21:05.501Z,20.40
2022-12-31T03:26:12.801Z,17.83
2022-12-31T03:31:19.797Z,19.67
2022-12-31T03:36:23.897Z,19.03
2022-12-31T03:41:27.598Z,19.40
2022-12-31T03:46:32.692Z,19.57
2022-12-31T03:51:37.172Z,21.10
2022-12-31T03:56:42.103Z,15.93
2022-12-31T04:01:46.708Z,19.63
2022-12-31T04:06:51.166Z,18.60
2022-12-31T04:11:55.662Z,20.20
2022-12-31T04:17:02.511Z,19.87
2022-12-31T04:22:06.557Z,20.37
2022-12-31T04:27:12.495Z,17.30
2022-12-31T04:32:18.736Z,21.20
2022-12-31T04:37:26.318Z,19.43
2022-12-31T04:42:32.807Z,20.40
2022-12-31T04:47:39.007Z,19.80
2022-12-31T04:52:43.262Z,19.20
2022-12-31T04:57:47.084Z,16.90
2022-12-31T05:02:56.507Z,18.57
2022-12-31T05:08:03.544Z,23.20
2022-12-31T05:13:07.432Z,18.03
2022-12-31T05:18:16.150Z,19.27
2022-12-31T05:23:22.514Z,16.87
2022-12-31T05:28:27.671Z,18.93
2022-12-31T05:33:34.053Z,21.07
2022-12-31T05:38:39.388Z,20.63
2022-12-31T05:43:44.149Z,19.63
2022-12-31T05:48:49.348Z,17.77
2022-12-31T05:53:53.987Z,17.33
2022-12-31T05:58:59.435Z,15.97
2022-12-31T06:04:03.383Z,16.37
2022-12-31T06:09:12.824Z,18.90
2022-12-31T06:14:18.386Z,17.73
2022-12-31T06:19:23.335Z,15.80
2022-12-31T06:24:28.067Z,20.60
2022-12-31T06:29:34.755Z,18.87
2022-12-31T06:34:39.522Z,17.63
2022-12-31T06:39:45.237Z,12.83
2022-12-31T06:44:50.354Z,16.60
2022-12-31T06:49:56.825Z,16.67
2022-12-31T06:55:02.590Z,18.00
2022-12-31T07:00:08.735Z,15.83
2022-12-31T07:05:37.221Z,19.20
2022-12-31T07:10:58.075Z,17.20
2022-12-31T07:16:31.519Z,16.50
2022-12-31T07:21:40.379Z,19.97
2022-12-31T07:27:04.261Z,18.63
2022-12-31T07:32:38.853Z,18.10
2022-12-31T07:37:49.746Z,19.13
2022-12-31T07:43:25.083Z,16.10
2022-12-31T07:48:30.123Z,17.80
2022-12-31T07:53:38.671Z,16.42
2022-12-31T07:59:09.351Z,17.40
2022-12-31T08:04:47.159Z,19.13
2022-12-31T08:14:59.679Z,16.33
2022-12-31T08:20:08.162Z,17.15
2022-12-31T08:25:58.114Z,17.63
2022-12-31T08:37:25.515Z,17.77
2022-12-31T08:42:41.271Z,21.90
2022-12-31T08:48:03.270Z,21.30
2022-12-31T08:53:08.796Z,22.60
2022-12-31T08:58:37.335Z,23.13
2022-12-31T09:03:54.391Z,21.97
2022-12-31T09:09:24.387Z,24.23
2022-12-31T09:14:48.009Z,22.40
2022-12-31T09:19:56.526Z,21.93
2022-12-31T09:25:03.335Z,21.63
2022-12-31T09:30:14.071Z,18.13
2022-12-31T09:35:37.844Z,23.20
2022-12-31T09:41:03.062Z,18.37
2022-12-31T09:46:42.425Z,18.27
2022-12-31T09:52:19.341Z,18.70
2022-12-31T09:57:39.848Z,17.17
2022-12-31T10:03:22.056Z,16.03
2022-12-31T10:08:45.471Z,18.87
2022-12-31T10:14:17.426Z,16.93
2022-12-31T10:20:10.172Z,20.60
2022-12-31T10:25:51.798Z,19.23
2022-12-31T10:31:24.394Z,18.50
2022-12-31T10:36:48.350Z,19.50
2022-12-31T10:42:31.436Z,20.03
2022-12-31T10:47:51.785Z,18.50
2022-12-31T10:53:15.720Z,18.90
2022-12-31T10:58:39.497Z,17.90
2022-12-31T11:03:56.241Z,18.33
2022-12-31T11:09:34.229Z,18.83
2022-12-31T11:15:10.901Z,22.23
2022-12-31T11:20:39.049Z,24.03
2022-12-31T11:26:08.870Z,20.40
2022-12-31T11:31:57.261Z,21.80
2022-12-31T11:37:30.510Z,23.80
2022-12-31T11:43:01.500Z,22.77
2022-12-31T11:48:31.681Z,22.87
2022-12-31T11:53:59.644Z,25.80
2022-12-31T11:59:18.842Z,26.97
2022-12-31T12:04:25.610Z,25.43
2022-12-31T12:09:36.887Z,24.50
2022-12-31T12:14:49.518Z,23.47
2022-12-31T12:19:57.627Z,28.00
2022-12-31T12:25:09.421Z,28.97
2022-12-31T12:30:25.273Z,24.73
2022-12-31T12:35:35.868Z,25.60
2022-12-31T12:40:40.199Z,23.20
2022-12-31T12:45:52.365Z,23.02
2022-12-31T12:51:00.677Z,25.27
2022-12-31T12:56:36.699Z,24.97
2022-12-31T13:02:00.080Z,26.48
2022-12-31T13:07:21.398Z,26.53
2022-12-31T13:18:39.839Z,28.30
2022-12-31T13:23:54.295Z,24.53
2022-12-31T13:29:01.256Z,26.00
2022-12-31T13:34:17.952Z,25.03
2022-12-31T13:39:31.606Z,28.03
2022-12-31T13:44:54.634Z,28.90
2022-12-31T13:50:16.713Z,24.90
2022-12-31T13:55:26.436Z,31.63
2022-12-31T14:00:42.329Z,26.40
2022-12-31T14:05:57.437Z,25.13
2022-12-31T14:11:35.239Z,25.80
2022-12-31T14:22:06.533Z,22.53
2022-12-31T14:27:39.136Z,26.27
2022-12-31T14:33:02.210Z,27.77
2022-12-31T14:38:47.199Z,26.43
2022-12-31T14:44:53.059Z,29.10
2022-12-31T14:50:16.998Z,27.40
2022-12-31T14:55:26.774Z,23.13
2022-12-31T15:00:40.007Z,24.33
2022-12-31T15:06:11.397Z,25.50
2022-12-31T15:11:24.888Z,25.57
2022-12-31T15:17:01.318Z,27.30
2022-12-31T15:22:32.382Z,28.20
2022-12-31T15:27:40.308Z,26.87
2022-12-31T15:32:49.333Z,27.27
2022-12-31T15:38:41.881Z,28.20
2022-12-31T15:44:04.653Z,29.53
2022-12-31T15:49:25.866Z,26.43
2022-12-31T15:54:37.495Z,27.53
2022-12-31T15:59:47.576Z,27.33
2022-12-31T16:04:53.036Z,26.90
2022-12-31T16:10:00.793Z,26.53
2022-12-31T16:15:07.519Z,26.30
2022-12-31T16:20:28.609Z,25.17
2022-12-31T16:25:34.044Z,23.30
2022-12-31T16:30:41.989Z,23.40
2022-12-31T16:35:56.495Z,23.10
2022-12-31T16:41:17.465Z,23.13
2022-12-31T16:46:33.013Z,24.30
2022-12-31T16:51:40.579Z,23.73
2022-12-31T16:56:50.198Z,24.73
2022-12-31T17:01:57.309Z,24.10
2022-12-31T17:07:33.414Z,27.03
2022-12-31T17:13:28.419Z,27.70
2022-12-31T17:18:29.583Z,25.10
2022-12-31T17:23:39.433Z,25.83
2022-12-31T17:28:51.686Z,27.40
2022-12-31T17:34:18.189Z,26.70
2022-12-31T17:39:40.770Z,29.30
2022-12-31T17:44:52.747Z,29.77
2022-12-31T17:50:23.197Z,29.50
2022-12-31T17:55:29.456Z,25.40
2022-12-31T18:00:38.587Z,25.60
2022-12-31T18:05:45.654Z,25.63
2022-12-31T18:10:55.707Z,26.47
2022-12-31T18:16:07.348Z,26.77
2022-12-31T18:21:27.815Z,26.73
2022-12-31T18:26:37.747Z,27.40
2022-12-31T18:31:51.402Z,31.10
2022-12-31T18:36:56.608Z,32.97
2022-12-31T18:42:02.033Z,28.90
2022-12-31T18:47:16.583Z,29.08
2022-12-31T18:52:26.347Z,27.60
2022-12-31T18:57:31.352Z,29.07
2022-12-31T19:02:39.398Z,30.03
2022-12-31T19:07:44.168Z,28.13
2022-12-31T19:12:50.578Z,29.23
2022-12-31T19:17:54.635Z,29.07
2022-12-31T19:23:00.692Z,30.20
2022-12-31T19:28:14.721Z,29.07
2022-12-31T19:33:19.264Z,26.90
2022-12-31T19:38:33.117Z,25.73
2022-12-31T19:43:40.214Z,30.97
2022-12-31T19:48:46.947Z,27.80
2022-12-31T19:53:54.034Z,27.95
2022-12-31T19:59:05.712Z,26.83
2022-12-31T20:04:13.619Z,25.53
2022-12-31T20:09:17.409Z,27.20
2022-12-31T20:14:25.105Z,26.98
2022-12-31T20:19:31.978Z,29.63
2022-12-31T20:24:40.146Z,29.40
2022-12-31T20:29:44.220Z,29.15
2022-12-31T20:34:48.807Z,26.00
2022-12-31T20:39:54.391Z,25.27
2022-12-31T20:44:58.160Z,28.53
2022-12-31T20:50:11.897Z,25.57
2022-12-31T20:55:18.905Z,29.03
2022-12-31T21:00:22.990Z,26.87
2022-12-31T21:05:28.784Z,27.00
2022-12-31T21:10:36.591Z,30.00
2022-12-31T21:15:40.453Z,28.43
2022-12-31T21:20:53.298Z,27.40
2022-12-31T21:25:57.123Z,36.37
2022-12-31T21:31:07.623Z,32.37
2022-12-31T21:36:15.380Z,28.10
2022-12-31T21:41:39.336Z,29.60
2022-12-31T21:47:15.863Z,29.33
2022-12-31T21:52:27.487Z,28.63
2022-12-31T21:57:59.140Z,26.77
2022-12-31T22:03:17.199Z,28.60
2022-12-31T22:08:25.279Z,25.97
2022-12-31T22:13:29.440Z,28.83
2022-12-31T22:18:40.909Z,28.03
2022-12-31T22:23:48.531Z,27.93
2022-12-31T22:28:56.790Z,23.80
2022-12-31T22:34:03.103Z,26.77
2022-12-31T22:39:07.166Z,26.60
2022-12-31T22:44:12.530Z,25.77
2022-12-31T22:49:17.846Z,25.93
2022-12-31T22:54:24.473Z,26.70
2022-12-31T22:59:29.621Z,23.45
2022-12-31T23:04:34.513Z,23.67
2022-12-31T23:09:58.429Z,23.20
2022-12-31T23:15:20.443Z,24.90
2022-12-31T23:20:46.510Z,24.67
2022-12-31T23:25:53.347Z,26.57
2022-12-31T23:30:57.055Z,26.87
2022-12-31T23:36:06.022Z,25.43
2022-12-31T23:41:14.803Z,25.60
2022-12-31T23:46:20.188Z,24.48
2022-12-31T23:51:29.452Z,23.83
2022-12-31T23:56:35.283Z,24.73
